createdAt,value
2023-05-20T00:00:46.109Z,9.30
2023-05-20T00:03:40.437Z,10.90
2023-05-20T00:06:35.056Z,9.50
2023-05-20T00:09:29.672Z,9.50
2023-05-20T00:12:23.982Z,10.20
2023-05-20T00:15:18.141Z,10.10
2023-05-20T00:18:12.324Z,9.50
2023-05-20T00:21:06.910Z,10.00
2023-05-20T00:24:01.857Z,10.80
2023-05-20T00:26:55.864Z,9.80
2023-05-20T00:33:16.816Z,9.50
2023-05-20T00:38:08.072Z,9.60
2023-05-20T00:41:06.534Z,9.30
2023-05-20T00:44:00.978Z,9.90
2023-05-20T00:46:45.379Z,9.80
2023-05-20T00:49:40.011Z,9.30
2023-05-20T00:52:37.149Z,10.00
2023-05-20T00:55:34.654Z,8.90
2023-05-20T00:58:28.171Z,10.50
2023-05-20T01:01:22.220Z,9.70
2023-05-20T01:04:16.533Z,10.30
2023-05-20T01:07:11.136Z,9.50
2023-05-20T01:10:05.750Z,9.70
2023-05-20T01:13:03.097Z,9.70
2023-05-20T01:15:59.118Z,9.70
2023-05-20T01:18:57.351Z,10.30
2023-05-20T01:21:54.518Z,10.50
2023-05-20T01:24:41.244Z,10.10
2023-05-20T01:27:35.915Z,10.00
2023-05-20T01:30:44.092Z,11.00
2023-05-20T01:33:41.219Z,10.30
2023-05-20T01:36:36.317Z,11.80
2023-05-20T01:39:31.969Z,10.80
2023-05-20T01:42:27.887Z,11.30
2023-05-20T01:45:14.469Z,11.30
2023-05-20T01:48:09.451Z,10.80
2023-05-20T01:51:03.387Z,10.40
2023-05-20T01:53:57.866Z,10.80
2023-05-20T01:56:52.953Z,11.80
2023-05-20T01:59:47.520Z,11.30
2023-05-20T02:02:41.709Z,12.40
2023-05-20T02:05:36.367Z,12.60
2023-05-20T02:08:31.084Z,11.60
2023-05-20T02:11:25.038Z,11.50
2023-05-20T02:14:18.960Z,11.50
2023-05-20T02:17:12.831Z,11.20
2023-05-20T02:20:08.724Z,11.20
2023-05-20T02:23:03.095Z,10.30
2023-05-20T02:25:56.998Z,10.40
2023-05-20T02:28:51.764Z,10.20
2023-05-20T02:31:46.486Z,11.00
2023-05-20T02:34:40.849Z,10.20
2023-05-20T02:37:35.162Z,10.30
2023-05-20T02:40:29.234Z,10.40
2023-05-20T02:43:23.737Z,11.00
2023-05-20T02:46:18.759Z,10.10
2023-05-20T02:49:12.738Z,10.40
2023-05-20T02:52:08.893Z,9.80
2023-05-20T02:55:03.916Z,9.60
2023-05-20T02:57:58.116Z,9.00
2023-05-20T03:00:52.274Z,9.40
2023-05-20T03:03:46.812Z,9.20
2023-05-20T03:06:44.678Z,8.40
2023-05-20T03:09:38.832Z,8.60
2023-05-20T03:12:33.554Z,8.50
2023-05-20T03:15:27.912Z,8.10
2023-05-20T03:18:21.816Z,8.20
2023-05-20T03:21:15.919Z,8.80
2023-05-20T03:24:10.808Z,8.90
2023-05-20T03:27:04.851Z,8.00
2023-05-20T03:29:59.059Z,8.00
2023-05-20T03:32:53.092Z,7.60
2023-05-20T03:35:47.288Z,8.70
2023-05-20T03:38:41.576Z,8.20
2023-05-20T03:41:37.987Z,8.80
2023-05-20T03:44:31.892Z,7.70
2023-05-20T03:47:26.113Z,8.30
2023-05-20T03:50:20.595Z,8.10
2023-05-20T03:53:14.858Z,7.80
2023-05-20T03:56:09.404Z,7.60
2023-05-20T03:59:03.179Z,7.40
2023-05-20T04:01:58.147Z,7.80
2023-05-20T04:04:53.249Z,7.50
2023-05-20T04:07:47.142Z,7.60
2023-05-20T04:10:41.746Z,7.80
2023-05-20T04:13:35.842Z,7.80
2023-05-20T04:16:30.655Z,7.50
2023-05-20T04:19:28.428Z,8.00
2023-05-20T04:22:22.746Z,7.00
2023-05-20T04:25:17.160Z,7.60
2023-05-20T04:28:14.156Z,7.40
2023-05-20T04:31:09.120Z,7.20
2023-05-20T04:34:03.095Z,6.90
2023-05-20T04:36:57.961Z,7.20
2023-05-20T04:39:52.621Z,6.70
2023-05-20T04:42:50.344Z,6.70
2023-05-20T04:45:38.882Z,6.60
2023-05-20T04:48:35.047Z,6.70
2023-05-20T04:51:31.196Z,7.20
2023-05-20T04:54:25.944Z,6.50
2023-05-20T04:57:21.116Z,6.80
2023-05-20T05:00:17.293Z,6.40
2023-05-20T05:03:12.424Z,6.30
2023-05-20T05:06:06.987Z,6.40
2023-05-20T05:09:00.846Z,6.20
2023-05-20T05:11:54.984Z,6.30
2023-05-20T05:14:48.839Z,6.30
2023-05-20T05:17:42.910Z,6.40
2023-05-20T05:20:36.841Z,5.90
2023-05-20T05:23:31.075Z,6.30
2023-05-20T05:26:24.961Z,6.30
2023-05-20T05:29:19.085Z,6.00
2023-05-20T05:32:13.508Z,16.70
2023-05-20T05:35:08.585Z,7.30
2023-05-20T05:38:03.154Z,7.10
2023-05-20T05:40:57.437Z,8.10
2023-05-20T05:43:51.087Z,6.00
2023-05-20T05:46:45.126Z,6.00
2023-05-20T05:49:39.166Z,6.20
2023-05-20T05:52:33.348Z,6.50
2023-05-20T05:55:27.387Z,5.80
2023-05-20T05:58:22.212Z,6.30
2023-05-20T06:01:16.422Z,6.40
2023-05-20T06:04:30.607Z,5.90
2023-05-20T06:07:32.219Z,6.40
2023-05-20T06:10:26.799Z,5.90
2023-05-20T06:13:24.146Z,6.30
2023-05-20T06:16:18.376Z,7.20
2023-05-20T06:19:12.728Z,6.80
2023-05-20T06:22:07.247Z,6.60
2023-05-20T06:25:02.580Z,6.10
2023-05-20T06:27:57.529Z,6.40
2023-05-20T06:30:38.380Z,6.40
2023-05-20T06:33:32.991Z,6.20
2023-05-20T06:36:27.243Z,6.50
2023-05-20T06:39:21.155Z,6.90
2023-05-20T06:42:15.201Z,7.70
2023-05-20T06:45:11.578Z,7.70
2023-05-20T06:48:06.201Z,7.70
2023-05-20T06:51:00.320Z,7.50
2023-05-20T06:53:54.361Z,7.50
2023-05-20T06:56:48.560Z,7.50
2023-05-20T06:59:42.766Z,7.80
2023-05-20T07:02:37.533Z,9.20
2023-05-20T07:05:31.706Z,9.10
2023-05-20T07:08:25.780Z,9.20
2023-05-20T07:11:19.637Z,10.20
2023-05-20T07:14:13.439Z,9.80
2023-05-20T07:17:08.129Z,9.40
2023-05-20T07:20:01.850Z,9.40
2023-05-20T07:22:55.718Z,10.50
2023-05-20T07:25:49.746Z,10.20
2023-05-20T07:28:44.130Z,10.30
2023-05-20T07:31:37.957Z,10.80
2023-05-20T07:34:32.442Z,10.00
2023-05-20T07:37:26.369Z,10.10
2023-05-20T07:40:20.679Z,10.30
2023-05-20T07:43:14.502Z,10.40
2023-05-20T07:46:09.431Z,10.20
2023-05-20T07:49:03.215Z,10.70
2023-05-20T07:51:57.396Z,10.60
2023-05-20T07:54:51.326Z,11.90
2023-05-20T07:57:45.701Z,11.10
2023-05-20T08:00:39.732Z,9.70
2023-05-20T08:03:33.636Z,10.30
2023-05-20T08:06:29.765Z,11.90
2023-05-20T08:09:23.966Z,10.10
2023-05-20T08:12:17.735Z,11.60
2023-05-20T08:15:13.389Z,11.10
2023-05-20T08:18:07.326Z,10.20
2023-05-20T08:21:01.799Z,11.30
2023-05-20T08:23:55.824Z,11.00
2023-05-20T08:26:49.875Z,10.80
2023-05-20T08:29:43.573Z,11.20
2023-05-20T08:32:37.788Z,11.40
2023-05-20T08:35:32.123Z,11.00
2023-05-20T08:38:26.771Z,11.10
2023-05-20T08:41:22.356Z,11.20
2023-05-20T08:46:53.712Z,11.20
2023-05-20T08:49:47.734Z,11.10
2023-05-20T08:52:46.276Z,11.20
2023-05-20T08:55:49.873Z,10.80
2023-05-20T08:58:44.253Z,11.20
2023-05-20T09:01:43.133Z,11.80
2023-05-20T09:04:37.198Z,11.00
2023-05-20T09:07:34.293Z,11.20
2023-05-20T09:10:28.594Z,10.70
2023-05-20T09:13:23.821Z,10.70
2023-05-20T09:16:19.028Z,10.60
2023-05-20T09:19:13.201Z,10.60
2023-05-20T09:22:07.730Z,10.40
2023-05-20T09:25:01.975Z,10.70
2023-05-20T09:27:56.162Z,10.10
2023-05-20T09:30:57.975Z,9.60
2023-05-20T09:33:52.827Z,10.50
2023-05-20T09:36:50.687Z,10.00
2023-05-20T09:39:58.008Z,10.90
2023-05-20T09:42:54.396Z,10.10
2023-05-20T09:45:49.242Z,10.60
2023-05-20T09:48:43.215Z,10.70
2023-05-20T09:51:37.459Z,10.00
2023-05-20T09:54:32.209Z,9.60
2023-05-20T09:57:26.546Z,9.70
2023-05-20T10:00:21.750Z,9.60
2023-05-20T10:03:16.272Z,9.40
2023-05-20T10:06:43.297Z,9.50
2023-05-20T10:09:56.566Z,10.30
2023-05-20T10:13:01.536Z,10.80
2023-05-20T10:16:12.994Z,9.10
2023-05-20T10:19:20.042Z,8.80
2023-05-20T10:22:14.445Z,9.10
2023-05-20T10:25:14.003Z,9.20
2023-05-20T10:28:13.210Z,9.40
2023-05-20T10:31:18.246Z,9.30
2023-05-20T10:34:45.583Z,8.30
2023-05-20T10:37:48.727Z,10.40
2023-05-20T10:40:43.309Z,10.60
2023-05-20T10:43:37.017Z,11.50
2023-05-20T10:46:40.102Z,11.60
2023-05-20T10:49:48.529Z,11.50
2023-05-20T10:52:42.582Z,12.90
2023-05-20T10:55:42.346Z,12.70
2023-05-20T10:58:42.542Z,12.90
2023-05-20T11:01:36.963Z,13.30
2023-05-20T11:04:31.951Z,12.80
2023-05-20T11:07:34.167Z,12.90
2023-05-20T11:10:28.002Z,13.20
2023-05-20T11:13:22.793Z,13.20
2023-05-20T11:16:17.204Z,12.20
2023-05-20T11:19:18.887Z,12.30
2023-05-20T11:22:13.300Z,13.30
2023-05-20T11:25:12.103Z,13.70
2023-05-20T11:28:06.255Z,13.80
2023-05-20T11:31:00.932Z,14.20
2023-05-20T11:33:54.906Z,13.80
2023-05-20T11:36:50.462Z,13.40
2023-05-20T11:39:44.484Z,12.30
2023-05-20T11:42:39.534Z,12.40
2023-05-20T11:45:47.233Z,12.50
2023-05-20T11:48:43.647Z,13.00
2023-05-20T11:51:38.880Z,13.40
2023-05-20T11:54:36.568Z,13.10
2023-05-20T12:00:23.631Z,12.40
2023-05-20T12:03:18.122Z,14.10
2023-05-20T12:06:14.447Z,13.60
2023-05-20T12:09:10.464Z,15.10
2023-05-20T12:12:04.384Z,12.50
2023-05-20T12:14:58.315Z,14.60
2023-05-20T12:17:53.906Z,15.60
2023-05-20T12:20:48.106Z,14.40
2023-05-20T12:23:41.812Z,15.90
2023-05-20T12:26:36.136Z,14.40
2023-05-20T12:29:30.123Z,14.20
2023-05-20T12:32:24.909Z,14.30
2023-05-20T12:35:20.740Z,15.30
2023-05-20T12:38:14.518Z,15.10
2023-05-20T12:41:08.495Z,14.10
2023-05-20T12:44:02.531Z,14.50
2023-05-20T12:46:57.515Z,14.50
2023-05-20T12:49:51.636Z,13.80
2023-05-20T12:52:45.980Z,14.20
2023-05-20T12:55:40.356Z,15.20
2023-05-20T12:58:34.355Z,14.00
2023-05-20T13:01:30.356Z,15.60
2023-05-20T13:04:24.869Z,15.20
2023-05-20T13:07:18.718Z,16.20
2023-05-20T13:10:14.163Z,15.80
2023-05-20T13:13:08.057Z,15.70
2023-05-20T13:16:02.767Z,16.00
2023-05-20T13:18:57.102Z,16.30
2023-05-20T13:21:51.745Z,15.10
2023-05-20T13:24:41.904Z,16.90
2023-05-20T13:27:35.990Z,16.10
2023-05-20T13:30:29.866Z,16.70
2023-05-20T13:33:24.428Z,16.00
2023-05-20T13:36:18.684Z,16.80
2023-05-20T13:39:12.583Z,16.00
2023-05-20T13:42:07.465Z,15.50
2023-05-20T13:45:01.857Z,15.90
2023-05-20T13:47:56.078Z,16.10
2023-05-20T13:50:50.234Z,15.00
2023-05-20T13:53:44.432Z,15.00
2023-05-20T13:56:38.876Z,15.70
2023-05-20T13:59:32.937Z,14.50
2023-05-20T14:02:27.059Z,15.00
2023-05-20T14:05:21.517Z,15.20
2023-05-20T14:08:15.575Z,14.50
2023-05-20T14:11:09.887Z,14.60
2023-05-20T14:14:04.057Z,14.00
2023-05-20T14:16:58.576Z,13.80
2023-05-20T14:19:52.933Z,13.70
2023-05-20T14:22:37.738Z,13.70
2023-05-20T14:25:31.735Z,13.60
2023-05-20T14:28:25.879Z,11.60
2023-05-20T14:31:20.012Z,11.90
2023-05-20T14:34:14.155Z,12.30
2023-05-20T14:37:10.007Z,12.90
2023-05-20T14:40:07.408Z,11.90
2023-05-20T14:43:01.225Z,11.90
2023-05-20T14:45:56.798Z,11.30
2023-05-20T14:48:50.868Z,11.90
2023-05-20T14:51:44.742Z,10.90
2023-05-20T14:54:38.697Z,11.80
2023-05-20T14:57:32.746Z,11.50
2023-05-20T15:00:26.601Z,11.90
2023-05-20T15:03:21.102Z,12.40
2023-05-20T15:06:15.405Z,12.10
2023-05-20T15:09:10.215Z,11.40
2023-05-20T15:12:04.357Z,11.70
2023-05-20T15:14:58.394Z,11.10
2023-05-20T15:17:52.650Z,12.20
2023-05-20T15:20:46.794Z,11.00
2023-05-20T15:23:40.723Z,11.10
2023-05-20T15:26:36.708Z,10.50
2023-05-20T15:29:30.537Z,11.00
2023-05-20T15:32:24.624Z,10.20
2023-05-20T15:35:18.778Z,10.80
2023-05-20T15:38:12.927Z,10.70
2023-05-20T15:41:08.008Z,11.60
2023-05-20T15:44:01.892Z,11.40
2023-05-20T15:46:56.175Z,11.30
2023-05-20T15:49:50.454Z,10.60
2023-05-20T15:52:44.304Z,10.80
2023-05-20T15:55:38.454Z,10.70
2023-05-20T15:58:33.071Z,10.90
2023-05-20T16:01:28.547Z,10.20
2023-05-20T16:04:23.611Z,10.00
2023-05-20T16:07:18.831Z,10.10
2023-05-20T16:10:14.672Z,10.30
2023-05-20T16:13:08.606Z,10.90
2023-05-20T16:16:02.911Z,11.20
2023-05-20T16:18:56.959Z,10.10
2023-05-20T16:21:51.078Z,10.60
2023-05-20T16:24:44.841Z,10.60
2023-05-20T16:27:38.980Z,10.20
2023-05-20T16:30:33.029Z,10.70
2023-05-20T16:33:27.050Z,11.60
2023-05-20T16:36:21.599Z,11.10
2023-05-20T16:39:16.161Z,10.80
2023-05-20T16:42:10.293Z,11.60
2023-05-20T16:45:06.333Z,12.00
2023-05-20T16:48:00.402Z,13.00
2023-05-20T16:50:54.701Z,12.00
2023-05-20T16:53:48.361Z,12.10
2023-05-20T16:56:42.434Z,11.70
2023-05-20T16:59:36.622Z,11.20
2023-05-20T17:02:30.978Z,11.80
2023-05-20T17:05:25.611Z,12.00
2023-05-20T17:08:19.513Z,11.90
2023-05-20T17:11:13.200Z,12.30
2023-05-20T17:14:06.937Z,12.00
2023-05-20T17:17:00.928Z,12.60
2023-05-20T17:19:55.291Z,12.10
2023-05-20T17:22:49.651Z,11.80
2023-05-20T17:25:43.598Z,11.80
2023-05-20T17:28:37.360Z,11.80
2023-05-20T17:31:31.546Z,12.60
2023-05-20T17:34:25.247Z,12.00
2023-05-20T17:37:10.130Z,13.40
2023-05-20T17:40:18.095Z,12.60
2023-05-20T17:43:11.927Z,12.60
2023-05-20T17:46:06.014Z,13.10
2023-05-20T17:48:59.759Z,11.80
2023-05-20T17:51:53.512Z,12.60
2023-05-20T17:54:47.443Z,12.20
2023-05-20T17:57:41.616Z,12.40
2023-05-20T18:00:42.314Z,12.40
2023-05-20T18:03:36.334Z,13.00
2023-05-20T18:06:30.288Z,12.50
2023-05-20T18:09:24.167Z,11.90
2023-05-20T18:12:18.508Z,12.90
2023-05-20T18:15:16.942Z,12.00
2023-05-20T18:18:11.408Z,11.80
2023-05-20T18:21:07.296Z,12.50
2023-05-20T18:24:01.609Z,11.90
2023-05-20T18:26:55.578Z,12.30
2023-05-20T18:29:38.889Z,12.50
2023-05-20T18:32:33.197Z,12.10
2023-05-20T18:35:27.588Z,11.50
2023-05-20T18:38:21.368Z,11.80
2023-05-20T18:41:15.699Z,12.60
2023-05-20T18:44:09.851Z,12.00
2023-05-20T18:47:04.156Z,12.20
2023-05-20T18:49:58.186Z,11.10
2023-05-20T18:52:52.297Z,12.40
2023-05-20T18:55:46.953Z,13.10
2023-05-20T18:58:41.104Z,13.00
2023-05-20T19:01:36.597Z,11.70
2023-05-20T19:04:30.961Z,12.10
2023-05-20T19:07:25.227Z,11.30
2023-05-20T19:10:19.229Z,11.20
2023-05-20T19:13:13.123Z,10.90
2023-05-20T19:16:07.515Z,11.70
2023-05-20T19:19:01.743Z,10.40
2023-05-20T19:21:56.444Z,10.00
2023-05-20T19:24:51.455Z,10.40
2023-05-20T19:27:45.968Z,10.70
2023-05-20T19:30:40.133Z,10.20
2023-05-20T19:33:35.174Z,10.30
2023-05-20T19:36:29.465Z,10.40
2023-05-20T19:39:23.933Z,9.80
2023-05-20T19:42:18.142Z,11.10
2023-05-20T19:45:14.588Z,10.70
2023-05-20T19:48:10.119Z,10.30
2023-05-20T19:51:04.575Z,11.20
2023-05-20T19:53:58.387Z,10.20
2023-05-20T19:56:52.626Z,10.40
2023-05-20T19:59:46.935Z,10.00
2023-05-20T20:02:41.087Z,10.10
2023-05-20T20:05:36.453Z,10.00
2023-05-20T20:08:31.643Z,9.50
2023-05-20T20:11:26.678Z,9.90
2023-05-20T20:14:20.576Z,9.80
2023-05-20T20:17:16.805Z,9.40
2023-05-20T20:20:13.834Z,10.20
2023-05-20T20:23:08.342Z,9.80
2023-05-20T20:26:02.608Z,9.70
2023-05-20T20:28:56.744Z,9.00
2023-05-20T20:31:50.874Z,10.50
2023-05-20T20:34:46.071Z,10.90
2023-05-20T20:37:40.281Z,9.60
2023-05-20T20:40:34.707Z,9.00
2023-05-20T20:43:28.778Z,9.50
2023-05-20T20:46:23.339Z,8.20
2023-05-20T20:49:17.175Z,9.10
2023-05-20T20:52:12.423Z,9.10
2023-05-20T20:55:06.704Z,9.20
2023-05-20T20:58:02.788Z,9.30
2023-05-20T21:00:57.655Z,8.50
2023-05-20T21:03:54.509Z,9.20
2023-05-20T21:06:49.135Z,9.60
2023-05-20T21:09:43.191Z,9.00
2023-05-20T21:12:37.224Z,9.40
2023-05-20T21:15:31.419Z,9.20
2023-05-20T21:18:25.879Z,8.90
2023-05-20T21:21:21.614Z,8.80
2023-05-20T21:24:15.705Z,8.80
2023-05-20T21:27:10.192Z,8.80
2023-05-20T21:30:04.261Z,8.80
2023-05-20T21:32:58.245Z,8.60
2023-05-20T21:35:52.297Z,8.10
2023-05-20T21:38:46.054Z,8.40
2023-05-20T21:41:40.334Z,8.70
2023-05-20T21:44:34.248Z,8.00
2023-05-20T21:47:27.938Z,8.70
2023-05-20T21:50:22.108Z,8.90
2023-05-20T21:53:15.843Z,8.30
2023-05-20T21:56:09.939Z,8.60
2023-05-20T21:59:03.775Z,8.90
2023-05-20T22:01:58.299Z,8.50
2023-05-20T22:04:52.291Z,8.60
2023-05-20T22:07:46.969Z,9.30
2023-05-20T22:10:40.840Z,8.80
2023-05-20T22:13:35.472Z,8.90
2023-05-20T22:16:29.169Z,8.80
2023-05-20T22:19:23.242Z,8.60
2023-05-20T22:22:17.515Z,8.70
2023-05-20T22:25:12.860Z,8.50
2023-05-20T22:28:07.515Z,9.60
2023-05-20T22:31:02.226Z,8.90
2023-05-20T22:33:56.385Z,9.00
2023-05-20T22:36:50.693Z,8.80
2023-05-20T22:39:44.661Z,9.50
2023-05-20T22:42:38.494Z,9.00
2023-05-20T22:45:32.681Z,9.70
2023-05-20T22:48:26.798Z,9.50
2023-05-20T22:51:21.799Z,8.80
2023-05-20T22:54:15.818Z,9.10
2023-05-20T22:57:10.203Z,8.70
2023-05-20T23:00:07.821Z,9.10
2023-05-20T23:03:02.054Z,9.00
2023-05-20T23:05:56.185Z,9.80
2023-05-20T23:08:49.861Z,8.80
2023-05-20T23:11:44.117Z,9.50
2023-05-20T23:14:38.241Z,9.20
2023-05-20T23:17:32.258Z,8.80
2023-05-20T23:20:29.213Z,8.90
2023-05-20T23:23:30.621Z,9.30
2023-05-20T23:26:28.783Z,9.00
2023-05-20T23:29:23.115Z,9.70
2023-05-20T23:32:19.594Z,9.30
2023-05-20T23:35:14.383Z,9.00
2023-05-20T23:38:08.464Z,9.40
2023-05-20T23:41:02.770Z,9.30
2023-05-20T23:43:56.714Z,8.80
2023-05-20T23:46:51.114Z,9.00
2023-05-20T23:49:47.857Z,9.00
2023-05-20T23:52:43.175Z,8.50
2023-05-20T23:55:37.648Z,9.50
2023-05-20T23:58:32.020Z,9.20
